Time;durP1;ratioP1;P1;durP2;ratioP2;P2;SDS_P1;SDS_P2;PMS_P1;PMS_P2;Temp;Humidity;BMP_temperature;BMP_pressure;BME280_temperature;BME280_humidity;BME280_pressure;Samples;Min_cycle;Max_cycle;Signal;HPM_P1;HPM_P2
2022/09/09 07:05:21;;;;;;;10.05;2.17;;;;;16.20;100101.00;;;;13059162;22;20179;-74
2022/09/09 07:10:22;;;;;;;10.40;2.73;;;;;16.10;100094.00;;;;13084455;22;20167;-75
2022/09/09 07:15:24;;;;;;;9.88;2.70;;;;;16.30;100109.00;;;;13056652;22;20767;-74
2022/09/09 07:20:26;;;;;;;9.82;2.28;;;;;16.60;100111.00;;;;13012291;22;20941;-74
2022/09/09 07:25:29;;;;;;;9.50;2.72;;;;;16.70;100106.00;;;;13087158;22;20186;-74
2022/09/09 07:30:31;;;;;;;14.38;2.40;;;;;16.90;100104.00;;;;13011415;22;20561;-74
2022/09/09 07:35:32;;;;;;;8.55;1.92;;;;;17.00;100108.00;;;;13086635;22;20163;-74
2022/09/09 07:40:36;;;;;;;8.65;2.05;;;;;17.20;100103.00;;;;13063808;22;20167;-74
2022/09/09 07:45:38;;;;;;;9.23;2.08;;;;;17.10;100107.00;;;;13065102;22;20652;-74
2022/09/09 07:50:39;;;;;;;5.45;1.85;;;;;17.00;100102.00;;;;13044044;22;20231;-74
2022/09/09 07:55:40;;;;;;;8.70;2.15;;;;;17.40;100098.00;;;;13043356;22;20172;-74
2022/09/09 08:00:43;;;;;;;8.73;2.17;;;;;17.10;100099.00;;;;13043740;22;20614;-74
2022/09/09 08:05:44;;;;;;;9.07;2.03;;;;;17.10;100098.00;;;;13018768;22;20661;-74
2022/09/09 08:10:46;;;;;;;7.25;1.90;;;;;17.10;100098.00;;;;13020055;22;20175;-74
2022/09/09 08:15:50;;;;;;;8.15;2.05;;;;;17.70;100095.00;;;;13043146;22;20221;-74
2022/09/09 08:20:51;;;;;;;6.55;2.03;;;;;19.00;100099.00;;;;13043432;22;20171;-74
2022/09/09 08:25:53;;;;;;;6.03;2.47;;;;;20.20;100110.00;;;;13042602;22;20664;-74
2022/09/09 08:30:55;;;;;;;3.65;1.55;;;;;20.10;100120.00;;;;13017212;22;20201;-74
2022/09/09 08:35:56;;;;;;;6.03;1.60;;;;;19.30;100123.00;;;;13069648;22;20274;-75
2022/09/09 08:41:10;;;;;;;11.50;2.30;;;;;19.00;100130.00;;;;13042617;22;20188;-75
2022/09/09 08:46:19;;;;;;;5.03;1.60;;;;;18.70;100133.00;;;;13090509;22;20187;-74
2022/09/09 08:51:24;;;;;;;12.20;2.58;;;;;18.50;100136.00;;;;13091245;22;20540;-74
2022/09/09 08:56:28;;;;;;;8.25;2.40;;;;;18.30;100128.00;;;;13090257;22;20189;-74
2022/09/09 09:01:42;;;;;;;6.57;1.98;;;;;17.80;100132.00;;;;13090017;22;20603;-74
2022/09/09 09:07:14;;;;;;;7.38;2.13;;;;;17.50;100151.00;;;;13089914;22;20163;-74
2022/09/09 09:12:21;;;;;;;8.27;1.80;;;;;17.90;100158.00;;;;13042086;22;20175;-74
2022/09/09 09:17:27;;;;;;;5.00;1.85;;;;;17.50;100162.00;;;;13038599;22;20159;-74
2022/09/09 09:22:51;;;;;;;8.55;2.53;;;;;17.70;100158.00;;;;13041896;22;20193;-74
2022/09/09 09:28:22;;;;;;;8.10;2.30;;;;;17.40;100160.00;;;;13066864;22;20224;-74
2022/09/09 09:33:35;;;;;;;14.57;2.72;;;;;17.20;100160.00;;;;13070844;22;20171;-74
2022/09/09 09:38:37;;;;;;;7.45;2.22;;;;;17.40;100168.00;;;;13045917;22;20172;-73
2022/09/09 09:44:00;;;;;;;6.65;2.13;;;;;17.50;100171.00;;;;13018775;22;20234;-75
2022/09/09 09:49:08;;;;;;;7.95;2.45;;;;;17.60;100171.00;;;;13040972;22;20827;-75
2022/09/09 09:54:13;;;;;;;7.28;2.30;;;;;17.70;100171.00;;;;13019135;22;20171;-75
2022/09/09 09:59:35;;;;;;;6.97;2.55;;;;;17.70;100174.00;;;;13018854;22;20258;-74
2022/09/09 10:04:47;;;;;;;14.00;2.30;;;;;17.90;100171.00;;;;13021397;22;20604;-75
2022/09/09 10:09:54;;;;;;;8.88;2.53;;;;;17.90;100173.00;;;;13044339;22;20164;-75
2022/09/09 10:15:23;;;;;;;6.57;2.10;;;;;17.70;100178.00;;;;13092281;22;20164;-74
2022/09/09 10:20:31;;;;;;;6.55;2.33;;;;;17.60;100193.00;;;;13092027;22;20164;-75
2022/09/09 10:25:58;;;;;;;12.43;2.42;;;;;17.90;100179.00;;;;13091107;22;20187;-75
2022/09/09 10:31:49;;;;;;;8.40;2.40;;;;;18.60;100195.00;;;;13044627;22;20204;-74
2022/09/09 10:36:50;;;;;;;4.97;2.00;;;;;18.90;100191.00;;;;13055715;22;20252;-75
2022/09/09 10:42:12;;;;;;;7.68;2.42;;;;;19.50;100193.00;;;;13071013;22;20206;-74
2022/09/09 10:47:28;;;;;;;4.78;1.90;;;;;20.50;100195.00;;;;13044937;22;20175;-75
2022/09/09 10:52:36;;;;;;;5.03;1.90;;;;;21.20;100192.00;;;;13090714;22;20167;-75
2022/09/09 10:57:48;;;;;;;10.30;2.50;;;;;21.70;100206.00;;;;13070373;22;20166;-75
2022/09/09 11:02:59;;;;;;;9.00;2.05;;;;;22.00;100191.00;;;;13118733;22;20191;-75
2022/09/09 11:08:08;;;;;;;7.90;2.15;;;;;22.60;100191.00;;;;13018690;22;20179;-75
2022/09/09 11:13:25;;;;;;;13.95;7.65;;;;;23.00;100199.00;;;;13119074;22;20167;-75
2022/09/09 11:18:29;;;;;;;4.13;1.48;;;;;23.20;100188.00;;;;13090872;22;20819;-75
2022/09/09 11:23:45;;;;;;;5.35;1.58;;;;;23.00;100209.00;;;;13065005;22;20270;-75
2022/09/09 11:29:21;;;;;;;4.90;1.40;;;;;22.20;100208.00;;;;13091076;22;20178;-75
2022/09/09 11:34:33;;;;;;;4.45;1.50;;;;;22.30;100216.00;;;;13069881;22;20646;-74
2022/09/09 11:39:42;;;;;;;4.45;1.73;;;;;21.80;100221.00;;;;13090762;22;20834;-75
2022/09/09 11:44:44;;;;;;;3.97;1.38;;;;;21.20;100210.00;;;;13044081;22;20195;-75
2022/09/09 11:49:45;;;;;;;4.88;1.55;;;;;21.20;100215.00;;;;13017453;22;20167;-75
2022/09/09 11:54:49;;;;;;;4.43;1.33;;;;;20.60;100220.00;;;;13017765;22;20179;-75
2022/09/09 11:59:54;;;;;;;4.55;1.65;;;;;20.90;100217.00;;;;13043429;22;20191;-75
2022/09/09 12:05:05;;;;;;;6.47;1.50;;;;;21.00;100222.00;;;;13017135;22;20261;-75
2022/09/09 12:10:25;;;;;;;2.63;1.38;;;;;21.20;100206.00;;;;13089654;22;20163;-74
2022/09/09 12:15:28;;;;;;;3.90;1.23;;;;;21.10;100212.00;;;;13017186;22;20256;-75
2022/09/09 12:20:34;;;;;;;8.05;1.58;;;;;21.40;100211.00;;;;13042523;22;20642;-74
2022/09/09 12:26:16;;;;;;;5.07;1.38;;;;;21.30;100209.00;;;;13063923;22;20191;-75
2022/09/09 12:31:22;;;;;;;6.45;1.67;;;;;20.60;100216.00;;;;13118078;22;20284;-74
2022/09/09 12:36:29;;;;;;;8.65;1.50;;;;;20.80;100202.00;;;;13068838;22;20668;-74
2022/09/09 12:41:30;;;;;;;5.43;1.92;;;;;21.90;100210.00;;;;13063565;22;20229;-74
2022/09/09 12:46:45;;;;;;;3.10;1.40;;;;;22.30;100219.00;;;;13016878;22;20171;-74
2022/09/09 12:51:46;;;;;;;3.15;1.33;;;;;21.80;100208.00;;;;13089204;22;20227;-74
2022/09/09 12:56:48;;;;;;;3.55;1.40;;;;;22.30;100201.00;;;;13117908;22;20519;-75
2022/09/09 13:01:58;;;;;;;3.35;1.17;;;;;22.30;100199.00;;;;13116674;22;20183;-74
2022/09/09 13:07:11;;;;;;;3.90;1.50;;;;;22.90;100198.00;;;;13062833;22;20163;-75
2022/09/09 13:12:19;;;;;;;4.43;1.65;;;;;24.10;100181.00;;;;13063370;22;20227;-75
2022/09/09 13:17:27;;;;;;;3.83;0.98;;;;;24.10;100184.00;;;;13114358;22;20224;-75
2022/09/09 13:22:37;;;;;;;3.75;1.65;;;;;23.30;100187.00;;;;13088141;22;20187;-75
2022/09/09 13:27:41;;;;;;;4.85;1.20;;;;;23.60;100186.00;;;;13040813;22;20724;-75
2022/09/09 13:32:42;;;;;;;3.55;1.30;;;;;24.40;100187.00;;;;13089199;22;20250;-75
2022/09/09 13:37:43;;;;;;;3.22;1.10;;;;;24.10;100192.00;;;;13015644;22;20598;-75
2022/09/09 13:42:45;;;;;;;2.55;1.30;;;;;23.70;100188.00;;;;13088397;22;20187;-75
2022/09/09 13:47:51;;;;;;;5.00;1.27;;;;;25.50;100176.00;;;;13088129;22;20242;-74
2022/09/09 13:52:58;;;;;;;3.38;0.95;;;;;25.40;100185.00;;;;13108361;22;20178;-75
2022/09/09 13:58:01;;;;;;;5.15;1.13;;;;;25.10;100189.00;;;;13065963;22;20746;-75
2022/09/09 14:03:03;;;;;;;1.65;0.85;;;;;24.40;100187.00;;;;13061763;22;20183;-75
2022/09/09 14:08:06;;;;;;;4.53;1.25;;;;;23.30;100194.00;;;;13037093;22;20167;-75
2022/09/09 14:13:08;;;;;;;2.63;0.95;;;;;22.40;100192.00;;;;13044388;22;20618;-75
2022/09/09 14:18:12;;;;;;;3.17;1.20;;;;;24.30;100183.00;;;;13091730;22;20619;-75
2022/09/09 14:23:15;;;;;;;5.43;1.40;;;;;23.20;100192.00;;;;13044506;22;20199;-75
2022/09/09 14:28:16;;;;;;;6.38;1.25;;;;;23.10;100194.00;;;;13065320;22;20168;-75
2022/09/09 14:33:28;;;;;;;2.65;1.38;;;;;23.60;100187.00;;;;13019049;22;20524;-75
2022/09/09 14:38:39;;;;;;;2.30;1.30;;;;;23.10;100187.00;;;;13018700;22;20172;-75
2022/09/09 14:43:40;;;;;;;5.15;1.50;;;;;22.80;100193.00;;;;13018590;22;20200;-75
2022/09/09 14:48:43;;;;;;;5.65;1.75;;;;;23.70;100192.00;;;;13040388;22;20159;-75
2022/09/09 14:53:45;;;;;;;3.38;1.60;;;;;22.90;100187.00;;;;13037755;22;20180;-75
2022/09/09 14:58:48;;;;;;;4.93;1.20;;;;;23.10;100197.00;;;;13043681;22;20176;-75
2022/09/09 15:03:54;;;;;;;4.63;1.45;;;;;22.60;100191.00;;;;13069085;22;20191;-75
2022/09/09 15:08:59;;;;;;;2.75;1.25;;;;;22.80;100189.00;;;;13044611;22;20202;-75
2022/09/09 15:14:00;;;;;;;2.78;1.23;;;;;23.40;100182.00;;;;13092049;22;20163;-75
2022/09/09 15:19:02;;;;;;;3.22;1.33;;;;;23.30;100173.00;;;;13118685;22;20487;-75
2022/09/09 15:24:04;;;;;;;3.92;1.23;;;;;23.00;100169.00;;;;13018888;22;20522;-75
2022/09/09 15:29:07;;;;;;;4.70;1.60;;;;;22.80;100172.00;;;;13069884;22;20170;-75
2022/09/09 15:34:08;;;;;;;2.70;1.00;;;;;22.40;100179.00;;;;13044386;22;20506;-75
2022/09/09 15:39:12;;;;;;;4.90;1.40;;;;;22.30;100173.00;;;;13018206;22;20739;-75
2022/09/09 15:44:15;;;;;;;7.03;1.35;;;;;21.90;100187.00;;;;13018155;22;20283;-75
2022/09/09 15:49:19;;;;;;;4.57;1.50;;;;;21.50;100195.00;;;;13043460;22;20168;-75
2022/09/09 15:54:25;;;;;;;8.80;1.60;;;;;21.60;100202.00;;;;13089911;22;20779;-74
2022/09/09 15:59:28;;;;;;;4.30;1.90;;;;;21.30;100196.00;;;;13065828;22;20444;-75
2022/09/09 16:04:29;;;;;;;4.95;1.23;;;;;21.20;100209.00;;;;13035747;22;20191;-75
2022/09/09 16:09:32;;;;;;;3.22;1.45;;;;;21.30;100211.00;;;;13017506;22;20229;-75
2022/09/09 16:14:35;;;;;;;5.90;1.50;;;;;21.20;100214.00;;;;13042017;22;20701;-75
2022/09/09 16:19:37;;;;;;;3.75;1.20;;;;;20.90;100220.00;;;;13065087;22;20160;-75
2022/09/09 16:24:38;;;;;;;4.55;1.55;;;;;20.40;100223.00;;;;13067865;22;20190;-75
2022/09/09 16:29:39;;;;;;;2.92;1.63;;;;;20.00;100231.00;;;;13016893;22;20167;-75
2022/09/09 16:34:42;;;;;;;3.00;1.30;;;;;19.80;100239.00;;;;13116064;22;20163;-75
2022/09/09 16:39:44;;;;;;;5.43;1.70;;;;;19.80;100249.00;;;;13042473;22;20273;-75
2022/09/09 16:44:45;;;;;;;2.53;1.30;;;;;19.70;100263.00;;;;13042004;22;20199;-75
2022/09/09 16:49:46;;;;;;;3.42;1.40;;;;;19.70;100260.00;;;;13017449;22;20274;-75
2022/09/09 16:54:48;;;;;;;3.53;1.40;;;;;19.90;100276.00;;;;13041180;22;20505;-75
2022/09/09 16:59:50;;;;;;;3.20;1.63;;;;;20.00;100287.00;;;;13042619;22;20273;-75
2022/09/09 17:04:51;;;;;;;1.85;1.00;;;;;20.40;100283.00;;;;13085610;22;20229;-75
2022/09/09 17:09:53;;;;;;;4.93;1.52;;;;;20.60;100280.00;;;;13034018;22;20238;-75
2022/09/09 17:14:56;;;;;;;2.78;1.10;;;;;20.50;100288.00;;;;13064321;22;20178;-75
2022/09/09 17:20:01;;;;;;;3.83;1.33;;;;;20.20;100289.00;;;;13067478;22;20224;-75
2022/09/09 17:25:03;;;;;;;3.65;1.52;;;;;19.80;100301.00;;;;13085385;22;20211;-75
2022/09/09 17:30:05;;;;;;;4.80;1.63;;;;;19.40;100298.00;;;;13037338;22;20178;-75
2022/09/09 17:35:06;;;;;;;6.30;1.80;;;;;19.10;100309.00;;;;13063037;22;20553;-75
2022/09/09 17:40:08;;;;;;;5.53;1.55;;;;;18.90;100313.00;;;;13038405;22;20451;-75
2022/09/09 17:45:10;;;;;;;2.15;1.38;;;;;18.70;100318.00;;;;13060397;22;20192;-75
2022/09/09 17:50:12;;;;;;;5.28;1.60;;;;;18.60;100335.00;;;;13089058;22;20164;-75
2022/09/09 17:55:15;;;;;;;3.00;1.60;;;;;18.40;100330.00;;;;13063883;22;20159;-75
2022/09/09 18:00:16;;;;;;;5.75;2.00;;;;;18.10;100340.00;;;;13064142;22;20159;-74
2022/09/09 18:05:18;;;;;;;2.85;1.30;;;;;17.90;100338.00;;;;13043903;22;20214;-75
2022/09/09 18:10:19;;;;;;;6.72;1.98;;;;;17.70;100340.00;;;;13088061;22;20164;-74
2022/09/09 18:15:21;;;;;;;4.32;1.70;;;;;17.40;100336.00;;;;13044740;22;20176;-74
2022/09/09 18:20:44;;;;;;;5.90;1.42;;;;;17.30;100344.00;;;;13023413;22;20258;-74
2022/09/09 18:25:46;;;;;;;2.67;1.23;;;;;17.20;100341.00;;;;13065523;22;20860;-75
2022/09/09 18:30:48;;;;;;;6.22;1.45;;;;;17.00;100342.00;;;;13039248;22;20175;-75
2022/09/09 18:35:49;;;;;;;7.80;1.80;;;;;17.10;100356.00;;;;13066670;22;20553;-74
2022/09/09 18:40:55;;;;;;;10.00;1.67;;;;;17.00;100359.00;;;;13059156;22;20180;-74
2022/09/09 18:46:15;;;;;;;4.70;1.50;;;;;17.00;100365.00;;;;12988779;22;20202;-74
2022/09/09 18:51:24;;;;;;;4.93;1.77;;;;;17.00;100366.00;;;;13009343;22;20598;-74
2022/09/09 18:56:28;;;;;;;6.50;1.80;;;;;16.90;100372.00;;;;13016676;22;20214;-74
2022/09/09 19:01:29;;;;;;;5.25;2.15;;;;;16.80;100374.00;;;;13089520;22;20246;-74
2022/09/09 19:06:35;;;;;;;3.65;1.85;;;;;16.70;100371.00;;;;13060291;22;20534;-74
2022/09/09 19:11:37;;;;;;;8.55;2.05;;;;;16.60;100373.00;;;;13028364;22;20195;-74
2022/09/09 19:16:39;;;;;;;7.53;2.25;;;;;16.50;100385.00;;;;13038983;22;20220;-74
2022/09/09 19:21:41;;;;;;;9.95;2.60;;;;;16.40;100380.00;;;;13078697;22;20167;-74
2022/09/09 19:26:46;;;;;;;9.88;2.15;;;;;16.30;100392.00;;;;13058261;22;20163;-74
2022/09/09 19:31:49;;;;;;;4.40;1.67;;;;;16.30;100402.00;;;;13088639;22;20236;-74
2022/09/09 19:37:10;;;;;;;8.40;2.00;;;;;16.30;100422.00;;;;13066892;22;20166;-74
2022/09/09 19:42:17;;;;;;;5.32;1.85;;;;;16.40;100443.00;;;;13039499;22;20191;-74
2022/09/09 19:47:31;;;;;;;6.70;1.80;;;;;16.50;100443.00;;;;13066216;22;20167;-74
2022/09/09 19:52:32;;;;;;;8.43;2.70;;;;;16.60;100441.00;;;;12990798;22;20192;-74
2022/09/09 19:57:45;;;;;;;8.43;1.80;;;;;16.50;100442.00;;;;13065116;22;20620;-74
2022/09/09 20:02:54;;;;;;;3.75;1.70;;;;;16.40;100448.00;;;;13014181;22;20577;-74
2022/09/09 20:08:18;;;;;;;5.45;1.70;;;;;16.30;100450.00;;;;13038960;22;20282;-74
2022/09/09 20:13:20;;;;;;;4.63;1.58;;;;;16.10;100446.00;;;;13040365;22;20191;-74
2022/09/09 20:18:21;;;;;;;5.10;1.40;;;;;16.00;100459.00;;;;13016913;22;20209;-74
2022/09/09 20:23:22;;;;;;;6.68;1.73;;;;;16.00;100446.00;;;;13015534;22;20168;-74
2022/09/09 20:28:24;;;;;;;6.53;2.08;;;;;15.90;100453.00;;;;13063709;22;20159;-74
2022/09/09 20:33:25;;;;;;;6.38;1.80;;;;;15.80;100459.00;;;;13011563;22;20191;-74
2022/09/09 20:38:27;;;;;;;3.67;2.03;;;;;15.80;100455.00;;;;13040570;22;20233;-74
2022/09/09 20:43:28;;;;;;;6.75;2.30;;;;;15.80;100453.00;;;;13039973;22;20191;-74
2022/09/09 20:48:32;;;;;;;5.57;2.55;;;;;15.80;100455.00;;;;13088464;22;20171;-74
2022/09/09 20:53:33;;;;;;;10.20;2.70;;;;;15.80;100466.00;;;;12989524;22;20684;-74
2022/09/09 20:58:35;;;;;;;7.32;2.45;;;;;15.70;100459.00;;;;13088246;22;20169;-74
2022/09/09 21:03:37;;;;;;;6.43;2.70;;;;;15.70;100457.00;;;;13037490;22;20613;-74
2022/09/09 21:08:39;;;;;;;7.13;2.50;;;;;15.70;100460.00;;;;13113039;22;20170;-74
2022/09/09 21:13:41;;;;;;;5.90;2.33;;;;;15.70;100462.00;;;;13084610;22;20194;-74
2022/09/09 21:18:43;;;;;;;5.82;2.38;;;;;15.80;100462.00;;;;13032107;22;20166;-74
2022/09/09 21:23:44;;;;;;;4.90;2.10;;;;;15.80;100462.00;;;;13087441;22;20238;-74
2022/09/09 21:28:45;;;;;;;9.30;2.97;;;;;15.70;100445.00;;;;13064744;22;20167;-74
2022/09/09 21:33:47;;;;;;;8.63;3.20;;;;;15.70;100437.00;;;;13060269;22;20187;-74
2022/09/09 21:38:49;;;;;;;7.47;2.40;;;;;15.60;100447.00;;;;13041635;22;20175;-74
2022/09/09 21:43:52;;;;;;;6.43;2.50;;;;;15.50;100450.00;;;;13016652;22;20187;-74
2022/09/09 21:48:57;;;;;;;6.57;3.10;;;;;15.50;100445.00;;;;13040572;22;20864;-74
2022/09/09 21:53:59;;;;;;;8.80;3.30;;;;;15.50;100453.00;;;;13016257;22;20199;-74
2022/09/09 21:59:03;;;;;;;7.00;2.70;;;;;15.40;100433.00;;;;13017204;22;20229;-74
2022/09/09 22:04:04;;;;;;;10.47;3.37;;;;;15.40;100436.00;;;;13116715;22;20804;-74
2022/09/09 22:09:05;;;;;;;7.40;2.90;;;;;15.50;100441.00;;;;13036956;22;20464;-74
2022/09/09 22:14:07;;;;;;;7.43;3.40;;;;;15.50;100443.00;;;;13043104;22;20221;-74
2022/09/09 22:19:08;;;;;;;5.83;2.90;;;;;15.60;100445.00;;;;13043226;22;20171;-74
2022/09/09 22:24:10;;;;;;;9.13;3.20;;;;;15.60;100445.00;;;;13092360;22;20603;-74
2022/09/09 22:29:12;;;;;;;8.63;3.03;;;;;15.60;100444.00;;;;13090210;22;20155;-74
2022/09/09 22:34:13;;;;;;;11.07;3.20;;;;;15.70;100440.00;;;;13018971;22;20195;-74
2022/09/09 22:39:14;;;;;;;7.03;3.10;;;;;15.70;100442.00;;;;13064483;22;20160;-74
2022/09/09 22:44:15;;;;;;;12.73;2.75;;;;;15.60;100442.00;;;;13090267;22;20183;-74
2022/09/09 22:49:17;;;;;;;14.50;3.58;;;;;15.50;100443.00;;;;13016511;22;20611;-74
2022/09/09 22:54:20;;;;;;;10.07;3.60;;;;;15.60;100445.00;;;;13017956;22;20496;-74
2022/09/09 22:59:22;;;;;;;13.30;4.13;;;;;15.70;100457.00;;;;13064944;22;20190;-74
2022/09/09 23:04:24;;;;;;;10.35;3.38;;;;;15.80;100456.00;;;;13091325;22;20163;-74
2022/09/09 23:09:26;;;;;;;10.63;3.50;;;;;15.80;100458.00;;;;13018146;22;20703;-74
2022/09/09 23:14:27;;;;;;;7.07;3.63;;;;;15.80;100450.00;;;;13119387;22;20270;-74
2022/09/09 23:19:28;;;;;;;8.70;4.10;;;;;15.70;100451.00;;;;13018372;22;20182;-74
2022/09/09 23:24:30;;;;;;;13.48;4.55;;;;;15.60;100455.00;;;;13040597;22;20175;-74
2022/09/09 23:29:32;;;;;;;10.60;5.13;;;;;15.60;100456.00;;;;13042197;22;20179;-74
2022/09/09 23:34:34;;;;;;;12.13;3.60;;;;;15.50;100451.00;;;;13018117;22;20191;-74
2022/09/09 23:39:36;;;;;;;10.83;3.97;;;;;15.50;100450.00;;;;13090850;22;20167;-74
2022/09/09 23:44:38;;;;;;;10.70;4.10;;;;;15.50;100449.00;;;;13089181;22;20187;-74
2022/09/09 23:49:39;;;;;;;12.87;4.47;;;;;15.50;100456.00;;;;13070030;22;20167;-74
2022/09/09 23:54:40;;;;;;;10.90;4.00;;;;;15.50;100459.00;;;;13093506;22;20229;-74
2022/09/09 23:59:41;;;;;;;6.57;4.18;;;;;15.60;100466.00;;;;13067774;22;20222;-74
